sensor_id;sensor_type;location;lat;lon;timestamp;temperature;humidity
15384;DHT22;7790;53.022;12.968;2023-02-28T00:02:14;20.70;38.80
15384;DHT22;7790;53.022;12.968;2023-02-28T00:06:15;20.70;38.90
15384;DHT22;7790;53.022;12.968;2023-02-28T00:10:18;20.60;38.80
15384;DHT22;7790;53.022;12.968;2023-02-28T00:14:21;20.70;38.70
15384;DHT22;7790;53.022;12.968;2023-02-28T00:18:22;20.70;38.60
15384;DHT22;7790;53.022;12.968;2023-02-28T00:22:22;20.70;38.40
15384;DHT22;7790;53.022;12.968;2023-02-28T00:26:23;20.70;38.40
15384;DHT22;7790;53.022;12.968;2023-02-28T00:30:24;20.70;38.40
15384;DHT22;7790;53.022;12.968;2023-02-28T00:34:25;20.70;38.40
15384;DHT22;7790;53.022;12.968;2023-02-28T00:38:27;20.70;38.40
15384;DHT22;7790;53.022;12.968;2023-02-28T00:42:28;20.70;38.40
15384;DHT22;7790;53.022;12.968;2023-02-28T00:46:28;20.70;38.30
15384;DHT22;7790;53.022;12.968;2023-02-28T00:50:32;20.60;38.30
15384;DHT22;7790;53.022;12.968;2023-02-28T00:54:33;20.60;38.30
15384;DHT22;7790;53.022;12.968;2023-02-28T00:58:34;20.70;38.40
15384;DHT22;7790;53.022;12.968;2023-02-28T01:02:34;20.60;38.30
15384;DHT22;7790;53.022;12.968;2023-02-28T01:06:36;20.60;38.20
15384;DHT22;7790;53.022;12.968;2023-02-28T01:10:37;20.60;38.30
15384;DHT22;7790;53.022;12.968;2023-02-28T01:14:40;20.60;38.30
15384;DHT22;7790;53.022;12.968;2023-02-28T01:18:41;20.60;38.30
15384;DHT22;7790;53.022;12.968;2023-02-28T01:22:42;20.70;38.20
15384;DHT22;7790;53.022;12.968;2023-02-28T01:26:42;20.60;38.20
15384;DHT22;7790;53.022;12.968;2023-02-28T01:30:48;20.70;38.20
15384;DHT22;7790;53.022;12.968;2023-02-28T01:34:49;20.70;38.20
15384;DHT22;7790;53.022;12.968;2023-02-28T01:38:50;20.70;38.20
15384;DHT22;7790;53.022;12.968;2023-02-28T01:42:51;20.70;38.10
15384;DHT22;7790;53.022;12.968;2023-02-28T01:46:53;20.70;38.10
15384;DHT22;7790;53.022;12.968;2023-02-28T01:50:56;20.60;38.00
15384;DHT22;7790;53.022;12.968;2023-02-28T01:55:02;20.70;38.00
15384;DHT22;7790;53.022;12.968;2023-02-28T01:59:04;20.60;38.10
15384;DHT22;7790;53.022;12.968;2023-02-28T02:03:08;20.70;38.00
15384;DHT22;7790;53.022;12.968;2023-02-28T02:07:10;20.70;38.00
15384;DHT22;7790;53.022;12.968;2023-02-28T02:11:13;20.60;38.00
15384;DHT22;7790;53.022;12.968;2023-02-28T02:15:41;20.70;38.00
15384;DHT22;7790;53.022;12.968;2023-02-28T02:20:03;20.70;38.00
15384;DHT22;7790;53.022;12.968;2023-02-28T02:33:02;20.70;37.90
15384;DHT22;7790;53.022;12.968;2023-02-28T02:37:13;20.70;37.80
15384;DHT22;7790;53.022;12.968;2023-02-28T02:45:52;20.80;37.80
15384;DHT22;7790;53.022;12.968;2023-02-28T02:49:58;20.70;37.80
15384;DHT22;7790;53.022;12.968;2023-02-28T02:54:17;20.70;37.80
15384;DHT22;7790;53.022;12.968;2023-02-28T02:58:24;20.60;37.80
15384;DHT22;7790;53.022;12.968;2023-02-28T03:02:28;20.50;37.90
15384;DHT22;7790;53.022;12.968;2023-02-28T03:06:34;20.50;37.90
15384;DHT22;7790;53.022;12.968;2023-02-28T03:10:40;20.50;37.80
15384;DHT22;7790;53.022;12.968;2023-02-28T03:23:42;20.60;37.60
15384;DHT22;7790;53.022;12.968;2023-02-28T03:31:59;20.80;37.40
15384;DHT22;7790;53.022;12.968;2023-02-28T03:36:09;20.90;37.50
15384;DHT22;7790;53.022;12.968;2023-02-28T03:40:23;20.90;37.50
15384;DHT22;7790;53.022;12.968;2023-02-28T03:44:32;20.90;37.40
15384;DHT22;7790;53.022;12.968;2023-02-28T03:48:45;20.90;37.30
15384;DHT22;7790;53.022;12.968;2023-02-28T03:53:01;20.90;37.30
15384;DHT22;7790;53.022;12.968;2023-02-28T03:57:20;20.90;37.30
15384;DHT22;7790;53.022;12.968;2023-02-28T04:05:26;20.80;37.30
15384;DHT22;7790;53.022;12.968;2023-02-28T04:09:28;20.80;37.40
15384;DHT22;7790;53.022;12.968;2023-02-28T04:13:28;20.80;37.40
15384;DHT22;7790;53.022;12.968;2023-02-28T04:17:29;20.80;37.30
15384;DHT22;7790;53.022;12.968;2023-02-28T04:21:32;20.80;37.40
15384;DHT22;7790;53.022;12.968;2023-02-28T04:25:33;20.80;37.40
15384;DHT22;7790;53.022;12.968;2023-02-28T04:29:34;20.80;37.30
15384;DHT22;7790;53.022;12.968;2023-02-28T04:33:35;20.70;37.30
15384;DHT22;7790;53.022;12.968;2023-02-28T04:37:36;20.70;37.30
15384;DHT22;7790;53.022;12.968;2023-02-28T04:41:37;20.70;37.30
15384;DHT22;7790;53.022;12.968;2023-02-28T04:45:38;20.80;37.20
15384;DHT22;7790;53.022;12.968;2023-02-28T04:49:39;20.80;37.00
15384;DHT22;7790;53.022;12.968;2023-02-28T04:53:42;20.80;37.00
15384;DHT22;7790;53.022;12.968;2023-02-28T04:57:43;20.90;37.10
15384;DHT22;7790;53.022;12.968;2023-02-28T05:01:48;20.90;36.90
15384;DHT22;7790;53.022;12.968;2023-02-28T05:05:49;20.80;36.90
15384;DHT22;7790;53.022;12.968;2023-02-28T05:09:50;20.80;36.90
15384;DHT22;7790;53.022;12.968;2023-02-28T05:13:52;20.80;36.90
15384;DHT22;7790;53.022;12.968;2023-02-28T05:17:54;20.80;37.00
15384;DHT22;7790;53.022;12.968;2023-02-28T05:21:55;20.80;36.90
15384;DHT22;7790;53.022;12.968;2023-02-28T05:25:56;20.80;37.10
15384;DHT22;7790;53.022;12.968;2023-02-28T05:29:57;20.80;36.90
15384;DHT22;7790;53.022;12.968;2023-02-28T05:33:59;20.80;36.80
15384;DHT22;7790;53.022;12.968;2023-02-28T05:38:00;20.80;36.70
15384;DHT22;7790;53.022;12.968;2023-02-28T05:42:01;20.80;36.60
15384;DHT22;7790;53.022;12.968;2023-02-28T05:46:03;20.80;36.50
15384;DHT22;7790;53.022;12.968;2023-02-28T05:50:05;20.80;36.50
15384;DHT22;7790;53.022;12.968;2023-02-28T05:54:06;20.80;36.40
15384;DHT22;7790;53.022;12.968;2023-02-28T05:58:07;20.80;36.30
15384;DHT22;7790;53.022;12.968;2023-02-28T06:02:17;20.50;33.00
15384;DHT22;7790;53.022;12.968;2023-02-28T06:06:18;16.60;28.60
15384;DHT22;7790;53.022;12.968;2023-02-28T06:10:19;14.90;29.20
15384;DHT22;7790;53.022;12.968;2023-02-28T06:14:20;13.80;29.30
15384;DHT22;7790;53.022;12.968;2023-02-28T06:18:21;13.10;29.60
15384;DHT22;7790;53.022;12.968;2023-02-28T06:22:22;12.50;29.80
15384;DHT22;7790;53.022;12.968;2023-02-28T06:26:23;12.00;30.00
15384;DHT22;7790;53.022;12.968;2023-02-28T06:30:24;11.70;30.60
15384;DHT22;7790;53.022;12.968;2023-02-28T06:34:27;11.50;30.80
15384;DHT22;7790;53.022;12.968;2023-02-28T06:38:28;11.40;30.80
15384;DHT22;7790;53.022;12.968;2023-02-28T06:42:29;11.40;30.80
15384;DHT22;7790;53.022;12.968;2023-02-28T06:46:31;11.00;31.00
15384;DHT22;7790;53.022;12.968;2023-02-28T06:50:32;10.70;31.50
15384;DHT22;7790;53.022;12.968;2023-02-28T06:54:33;10.50;32.30
15384;DHT22;7790;53.022;12.968;2023-02-28T06:58:34;10.70;32.30
15384;DHT22;7790;53.022;12.968;2023-02-28T07:02:36;10.80;32.20
15384;DHT22;7790;53.022;12.968;2023-02-28T07:06:37;11.00;32.30
15384;DHT22;7790;53.022;12.968;2023-02-28T07:10:39;10.80;32.20
15384;DHT22;7790;53.022;12.968;2023-02-28T07:14:39;10.70;33.10
15384;DHT22;7790;53.022;12.968;2023-02-28T07:18:40;10.70;34.00
15384;DHT22;7790;53.022;12.968;2023-02-28T07:22:41;10.60;34.30
15384;DHT22;7790;53.022;12.968;2023-02-28T07:26:42;10.60;34.90
15384;DHT22;7790;53.022;12.968;2023-02-28T07:30:43;11.50;36.20
15384;DHT22;7790;53.022;12.968;2023-02-28T07:34:44;13.60;35.20
15384;DHT22;7790;53.022;12.968;2023-02-28T07:38:47;15.00;34.00
15384;DHT22;7790;53.022;12.968;2023-02-28T07:42:48;15.90;33.80
15384;DHT22;7790;53.022;12.968;2023-02-28T07:46:51;16.20;33.80
15384;DHT22;7790;53.022;12.968;2023-02-28T07:50:57;16.50;34.00
15384;DHT22;7790;53.022;12.968;2023-02-28T07:54:58;16.80;33.90
15384;DHT22;7790;53.022;12.968;2023-02-28T07:58:59;16.90;34.20
15384;DHT22;7790;53.022;12.968;2023-02-28T08:02:59;16.90;34.50
15384;DHT22;7790;53.022;12.968;2023-02-28T08:07:00;17.10;34.80
15384;DHT22;7790;53.022;12.968;2023-02-28T08:11:02;17.20;34.90
15384;DHT22;7790;53.022;12.968;2023-02-28T08:15:04;17.30;35.00
15384;DHT22;7790;53.022;12.968;2023-02-28T08:19:04;17.40;35.00
15384;DHT22;7790;53.022;12.968;2023-02-28T08:23:05;17.50;34.90
15384;DHT22;7790;53.022;12.968;2023-02-28T08:27:06;17.70;35.00
15384;DHT22;7790;53.022;12.968;2023-02-28T08:31:09;17.80;35.20
15384;DHT22;7790;53.022;12.968;2023-02-28T08:35:10;17.90;35.20
15384;DHT22;7790;53.022;12.968;2023-02-28T08:39:12;18.00;35.10
15384;DHT22;7790;53.022;12.968;2023-02-28T08:43:13;18.20;35.30
15384;DHT22;7790;53.022;12.968;2023-02-28T08:47:14;18.30;35.20
15384;DHT22;7790;53.022;12.968;2023-02-28T08:51:17;18.40;35.20
15384;DHT22;7790;53.022;12.968;2023-02-28T08:55:19;18.50;35.00
15384;DHT22;7790;53.022;12.968;2023-02-28T08:59:20;18.60;34.80
15384;DHT22;7790;53.022;12.968;2023-02-28T09:03:21;18.60;35.00
15384;DHT22;7790;53.022;12.968;2023-02-28T09:07:22;18.70;34.90
15384;DHT22;7790;53.022;12.968;2023-02-28T09:11:23;18.80;34.60
15384;DHT22;7790;53.022;12.968;2023-02-28T09:15:24;18.90;34.70
15384;DHT22;7790;53.022;12.968;2023-02-28T09:19:25;18.90;34.40
15384;DHT22;7790;53.022;12.968;2023-02-28T09:23:25;19.00;34.50
15384;DHT22;7790;53.022;12.968;2023-02-28T09:27:26;19.00;34.40
15384;DHT22;7790;53.022;12.968;2023-02-28T09:31:28;19.00;34.40
15384;DHT22;7790;53.022;12.968;2023-02-28T09:35:29;19.00;34.40
15384;DHT22;7790;53.022;12.968;2023-02-28T09:39:31;19.00;34.20
15384;DHT22;7790;53.022;12.968;2023-02-28T09:43:41;19.00;34.10
15384;DHT22;7790;53.022;12.968;2023-02-28T09:47:45;19.00;34.20
15384;DHT22;7790;53.022;12.968;2023-02-28T09:56:10;18.80;34.10
15384;DHT22;7790;53.022;12.968;2023-02-28T10:00:24;18.70;34.20
15384;DHT22;7790;53.022;12.968;2023-02-28T10:04:41;18.70;34.30
15384;DHT22;7790;53.022;12.968;2023-02-28T10:08:57;18.70;34.70
15384;DHT22;7790;53.022;12.968;2023-02-28T10:13:04;19.00;34.20
15384;DHT22;7790;53.022;12.968;2023-02-28T10:17:11;18.80;33.70
15384;DHT22;7790;53.022;12.968;2023-02-28T10:22:31;18.80;33.80
15384;DHT22;7790;53.022;12.968;2023-02-28T10:26:14;18.80;33.60
15384;DHT22;7790;53.022;12.968;2023-02-28T10:30:19;18.90;33.70
15384;DHT22;7790;53.022;12.968;2023-02-28T10:34:20;19.00;33.50
15384;DHT22;7790;53.022;12.968;2023-02-28T10:38:32;19.00;33.30
15384;DHT22;7790;53.022;12.968;2023-02-28T10:42:33;19.00;33.20
15384;DHT22;7790;53.022;12.968;2023-02-28T10:46:40;19.00;33.10
15384;DHT22;7790;53.022;12.968;2023-02-28T10:50:54;19.00;33.00
15384;DHT22;7790;53.022;12.968;2023-02-28T10:55:16;19.00;32.80
15384;DHT22;7790;53.022;12.968;2023-02-28T10:59:29;19.10;32.90
15384;DHT22;7790;53.022;12.968;2023-02-28T11:03:31;18.60;32.30
15384;DHT22;7790;53.022;12.968;2023-02-28T11:07:33;18.50;32.30
15384;DHT22;7790;53.022;12.968;2023-02-28T11:11:43;18.60;32.00
15384;DHT22;7790;53.022;12.968;2023-02-28T11:15:51;18.40;31.70
15384;DHT22;7790;53.022;12.968;2023-02-28T11:19:57;18.20;31.60
15384;DHT22;7790;53.022;12.968;2023-02-28T11:24:28;18.20;31.50
15384;DHT22;7790;53.022;12.968;2023-02-28T11:28:32;18.00;31.20
15384;DHT22;7790;53.022;12.968;2023-02-28T11:32:33;18.10;31.10
15384;DHT22;7790;53.022;12.968;2023-02-28T11:36:33;18.20;31.40
15384;DHT22;7790;53.022;12.968;2023-02-28T12:07:09;18.20;31.00
15384;DHT22;7790;53.022;12.968;2023-02-28T12:28:35;18.00;30.70
15384;DHT22;7790;53.022;12.968;2023-02-28T12:32:46;18.00;31.40
15384;DHT22;7790;53.022;12.968;2023-02-28T12:36:51;18.60;35.00
15384;DHT22;7790;53.022;12.968;2023-02-28T12:41:16;19.00;34.80
15384;DHT22;7790;53.022;12.968;2023-02-28T12:49:30;19.30;35.40
15384;DHT22;7790;53.022;12.968;2023-02-28T13:10:59;19.60;35.30
15384;DHT22;7790;53.022;12.968;2023-02-28T13:15:25;19.70;35.40
15384;DHT22;7790;53.022;12.968;2023-02-28T13:19:33;19.60;35.40
15384;DHT22;7790;53.022;12.968;2023-02-28T13:24:03;19.60;35.50
15384;DHT22;7790;53.022;12.968;2023-02-28T13:28:10;19.50;35.60
15384;DHT22;7790;53.022;12.968;2023-02-28T13:40:37;19.40;35.80
15384;DHT22;7790;53.022;12.968;2023-02-28T13:53:46;19.20;36.10
15384;DHT22;7790;53.022;12.968;2023-02-28T14:02:38;19.30;36.00
15384;DHT22;7790;53.022;12.968;2023-02-28T14:06:51;19.40;35.90
15384;DHT22;7790;53.022;12.968;2023-02-28T14:11:05;19.50;35.70
15384;DHT22;7790;53.022;12.968;2023-02-28T14:19:38;19.60;35.70
15384;DHT22;7790;53.022;12.968;2023-02-28T14:32:58;19.80;35.70
15384;DHT22;7790;53.022;12.968;2023-02-28T14:37:01;19.80;35.70
15384;DHT22;7790;53.022;12.968;2023-02-28T14:41:12;19.90;35.70
15384;DHT22;7790;53.022;12.968;2023-02-28T14:45:20;19.90;35.70
15384;DHT22;7790;53.022;12.968;2023-02-28T14:49:34;19.80;35.60
15384;DHT22;7790;53.022;12.968;2023-02-28T14:53:37;19.80;35.90
15384;DHT22;7790;53.022;12.968;2023-02-28T14:57:51;19.70;35.90
15384;DHT22;7790;53.022;12.968;2023-02-28T15:01:52;19.70;36.10
15384;DHT22;7790;53.022;12.968;2023-02-28T15:05:55;19.70;36.10
15384;DHT22;7790;53.022;12.968;2023-02-28T15:10:19;19.60;36.10
15384;DHT22;7790;53.022;12.968;2023-02-28T15:14:21;19.50;36.20
15384;DHT22;7790;53.022;12.968;2023-02-28T15:18:51;19.50;36.10
15384;DHT22;7790;53.022;12.968;2023-02-28T15:22:55;19.40;36.20
15384;DHT22;7790;53.022;12.968;2023-02-28T15:27:00;19.40;36.30
15384;DHT22;7790;53.022;12.968;2023-02-28T15:31:03;19.40;36.10
15384;DHT22;7790;53.022;12.968;2023-02-28T15:35:19;19.50;36.00
15384;DHT22;7790;53.022;12.968;2023-02-28T15:39:26;19.50;35.90
15384;DHT22;7790;53.022;12.968;2023-02-28T15:43:32;19.60;35.90
15384;DHT22;7790;53.022;12.968;2023-02-28T15:47:33;19.70;35.80
15384;DHT22;7790;53.022;12.968;2023-02-28T15:51:36;19.70;35.70
15384;DHT22;7790;53.022;12.968;2023-02-28T15:55:38;19.70;35.80
15384;DHT22;7790;53.022;12.968;2023-02-28T15:59:48;19.80;35.70
15384;DHT22;7790;53.022;12.968;2023-02-28T16:03:52;19.80;35.60
15384;DHT22;7790;53.022;12.968;2023-02-28T16:07:55;20.00;35.80
15384;DHT22;7790;53.022;12.968;2023-02-28T16:12:01;20.30;35.50
15384;DHT22;7790;53.022;12.968;2023-02-28T16:16:02;20.50;35.30
15384;DHT22;7790;53.022;12.968;2023-02-28T16:20:27;20.60;35.30
15384;DHT22;7790;53.022;12.968;2023-02-28T16:24:28;20.60;35.40
15384;DHT22;7790;53.022;12.968;2023-02-28T16:28:33;20.60;35.40
15384;DHT22;7790;53.022;12.968;2023-02-28T16:32:35;20.50;35.40
15384;DHT22;7790;53.022;12.968;2023-02-28T16:36:37;20.50;35.40
15384;DHT22;7790;53.022;12.968;2023-02-28T16:40:37;20.40;35.40
15384;DHT22;7790;53.022;12.968;2023-02-28T16:44:38;20.40;35.50
15384;DHT22;7790;53.022;12.968;2023-02-28T16:48:40;20.30;35.70
15384;DHT22;7790;53.022;12.968;2023-02-28T16:52:41;20.20;35.80
15384;DHT22;7790;53.022;12.968;2023-02-28T16:56:45;20.10;35.80
15384;DHT22;7790;53.022;12.968;2023-02-28T17:00:46;20.10;35.80
15384;DHT22;7790;53.022;12.968;2023-02-28T17:04:47;20.20;35.70
15384;DHT22;7790;53.022;12.968;2023-02-28T17:08:51;20.30;35.90
15384;DHT22;7790;53.022;12.968;2023-02-28T17:12:52;20.40;35.60
15384;DHT22;7790;53.022;12.968;2023-02-28T17:16:53;20.40;35.70
15384;DHT22;7790;53.022;12.968;2023-02-28T17:20:54;20.40;35.50
15384;DHT22;7790;53.022;12.968;2023-02-28T17:24:55;20.50;35.50
15384;DHT22;7790;53.022;12.968;2023-02-28T17:28:57;20.50;35.50
15384;DHT22;7790;53.022;12.968;2023-02-28T17:32:58;20.50;35.40
15384;DHT22;7790;53.022;12.968;2023-02-28T17:36:59;20.50;35.90
15384;DHT22;7790;53.022;12.968;2023-02-28T17:41:00;20.60;35.40
15384;DHT22;7790;53.022;12.968;2023-02-28T17:45:01;20.60;35.40
15384;DHT22;7790;53.022;12.968;2023-02-28T17:49:02;20.60;35.40
15384;DHT22;7790;53.022;12.968;2023-02-28T17:53:03;20.50;35.50
15384;DHT22;7790;53.022;12.968;2023-02-28T17:57:04;20.50;35.70
15384;DHT22;7790;53.022;12.968;2023-02-28T18:01:05;20.30;35.70
15384;DHT22;7790;53.022;12.968;2023-02-28T18:05:07;20.30;35.80
15384;DHT22;7790;53.022;12.968;2023-02-28T18:09:08;20.30;35.80
15384;DHT22;7790;53.022;12.968;2023-02-28T18:13:09;20.30;35.80
15384;DHT22;7790;53.022;12.968;2023-02-28T18:17:13;20.30;35.80
15384;DHT22;7790;53.022;12.968;2023-02-28T18:21:15;20.30;35.70
15384;DHT22;7790;53.022;12.968;2023-02-28T18:25:16;20.40;35.70
15384;DHT22;7790;53.022;12.968;2023-02-28T18:29:23;20.40;35.50
15384;DHT22;7790;53.022;12.968;2023-02-28T18:33:24;20.50;35.50
15384;DHT22;7790;53.022;12.968;2023-02-28T18:37:25;20.60;35.40
15384;DHT22;7790;53.022;12.968;2023-02-28T18:41:26;20.70;35.40
15384;DHT22;7790;53.022;12.968;2023-02-28T18:45:28;20.70;35.40
15384;DHT22;7790;53.022;12.968;2023-02-28T18:49:32;20.70;35.30
15384;DHT22;7790;53.022;12.968;2023-02-28T18:53:35;20.80;35.40
15384;DHT22;7790;53.022;12.968;2023-02-28T18:57:36;20.80;35.40
15384;DHT22;7790;53.022;12.968;2023-02-28T19:01:37;20.70;35.30
15384;DHT22;7790;53.022;12.968;2023-02-28T19:05:38;20.70;35.40
15384;DHT22;7790;53.022;12.968;2023-02-28T19:09:39;20.60;35.40
15384;DHT22;7790;53.022;12.968;2023-02-28T19:13:40;20.00;33.40
15384;DHT22;7790;53.022;12.968;2023-02-28T19:17:42;20.00;34.50
15384;DHT22;7790;53.022;12.968;2023-02-28T19:21:42;20.10;35.00
15384;DHT22;7790;53.022;12.968;2023-02-28T19:25:43;20.10;35.10
15384;DHT22;7790;53.022;12.968;2023-02-28T19:29:47;20.20;35.20
15384;DHT22;7790;53.022;12.968;2023-02-28T19:33:49;20.20;35.20
15384;DHT22;7790;53.022;12.968;2023-02-28T19:37:52;20.30;35.10
15384;DHT22;7790;53.022;12.968;2023-02-28T19:41:53;20.30;35.00
15384;DHT22;7790;53.022;12.968;2023-02-28T19:45:53;20.40;35.10
15384;DHT22;7790;53.022;12.968;2023-02-28T19:49:54;20.40;35.00
15384;DHT22;7790;53.022;12.968;2023-02-28T19:53:55;20.50;35.00
15384;DHT22;7790;53.022;12.968;2023-02-28T19:57:56;20.50;35.00
15384;DHT22;7790;53.022;12.968;2023-02-28T20:01:57;20.50;34.90
15384;DHT22;7790;53.022;12.968;2023-02-28T20:06:03;20.50;34.90
15384;DHT22;7790;53.022;12.968;2023-02-28T20:10:05;20.50;34.90
15384;DHT22;7790;53.022;12.968;2023-02-28T20:14:06;20.50;34.80
15384;DHT22;7790;53.022;12.968;2023-02-28T20:18:06;20.50;34.70
15384;DHT22;7790;53.022;12.968;2023-02-28T20:22:07;20.40;34.70
15384;DHT22;7790;53.022;12.968;2023-02-28T20:26:10;20.30;34.80
15384;DHT22;7790;53.022;12.968;2023-02-28T20:30:11;20.20;34.90
15384;DHT22;7790;53.022;12.968;2023-02-28T20:34:12;20.10;35.00
15384;DHT22;7790;53.022;12.968;2023-02-28T20:38:13;20.10;35.00
15384;DHT22;7790;53.022;12.968;2023-02-28T20:42:14;20.10;34.90
15384;DHT22;7790;53.022;12.968;2023-02-28T20:46:15;20.10;34.90
15384;DHT22;7790;53.022;12.968;2023-02-28T20:50:16;20.10;34.90
15384;DHT22;7790;53.022;12.968;2023-02-28T20:54:17;20.20;34.70
15384;DHT22;7790;53.022;12.968;2023-02-28T20:58:18;20.20;34.80
15384;DHT22;7790;53.022;12.968;2023-02-28T21:02:18;20.30;34.50
15384;DHT22;7790;53.022;12.968;2023-02-28T21:06:24;20.30;34.50
15384;DHT22;7790;53.022;12.968;2023-02-28T21:10:26;20.30;34.50
15384;DHT22;7790;53.022;12.968;2023-02-28T21:14:26;20.30;34.50
15384;DHT22;7790;53.022;12.968;2023-02-28T21:18:27;20.20;34.80
15384;DHT22;7790;53.022;12.968;2023-02-28T21:22:28;20.10;34.90
15384;DHT22;7790;53.022;12.968;2023-02-28T21:26:29;20.00;35.00
15384;DHT22;7790;53.022;12.968;2023-02-28T21:30:30;19.90;35.00
15384;DHT22;7790;53.022;12.968;2023-02-28T21:34:31;19.80;35.30
15384;DHT22;7790;53.022;12.968;2023-02-28T21:38:33;19.80;35.30
15384;DHT22;7790;53.022;12.968;2023-02-28T21:42:34;19.80;35.30
15384;DHT22;7790;53.022;12.968;2023-02-28T21:46:35;19.70;35.30
15384;DHT22;7790;53.022;12.968;2023-02-28T21:50:36;19.60;35.30
15384;DHT22;7790;53.022;12.968;2023-02-28T21:54:37;19.50;35.40
15384;DHT22;7790;53.022;12.968;2023-02-28T21:58:38;19.30;35.50
15384;DHT22;7790;53.022;12.968;2023-02-28T22:02:39;19.30;35.60
15384;DHT22;7790;53.022;12.968;2023-02-28T22:06:40;19.50;35.60
15384;DHT22;7790;53.022;12.968;2023-02-28T22:10:41;19.60;35.60
15384;DHT22;7790;53.022;12.968;2023-02-28T22:14:42;19.80;35.40
15384;DHT22;7790;53.022;12.968;2023-02-28T22:18:45;19.90;35.30
15384;DHT22;7790;53.022;12.968;2023-02-28T22:22:46;20.00;35.10
15384;DHT22;7790;53.022;12.968;2023-02-28T22:26:48;20.10;35.00
15384;DHT22;7790;53.022;12.968;2023-02-28T22:30:49;20.10;35.00
15384;DHT22;7790;53.022;12.968;2023-02-28T22:34:53;20.10;34.90
15384;DHT22;7790;53.022;12.968;2023-02-28T22:38:54;20.10;34.90
15384;DHT22;7790;53.022;12.968;2023-02-28T22:42:54;20.10;34.80
15384;DHT22;7790;53.022;12.968;2023-02-28T22:46:55;20.20;34.80
15384;DHT22;7790;53.022;12.968;2023-02-28T22:51:12;20.20;34.60
15384;DHT22;7790;53.022;12.968;2023-02-28T22:55:14;20.20;34.70
15384;DHT22;7790;53.022;12.968;2023-02-28T22:59:15;20.20;34.50
15384;DHT22;7790;53.022;12.968;2023-02-28T23:03:16;20.20;34.50
15384;DHT22;7790;53.022;12.968;2023-02-28T23:07:16;20.20;34.40
15384;DHT22;7790;53.022;12.968;2023-02-28T23:11:20;20.00;34.50
15384;DHT22;7790;53.022;12.968;2023-02-28T23:15:22;19.90;34.80
15384;DHT22;7790;53.022;12.968;2023-02-28T23:19:25;19.80;34.90
15384;DHT22;7790;53.022;12.968;2023-02-28T23:23:26;19.70;35.10
15384;DHT22;7790;53.022;12.968;2023-02-28T23:27:27;19.60;35.10
15384;DHT22;7790;53.022;12.968;2023-02-28T23:31:28;19.70;35.00
15384;DHT22;7790;53.022;12.968;2023-02-28T23:35:31;19.50;35.10
15384;DHT22;7790;53.022;12.968;2023-02-28T23:39:32;19.50;35.10
15384;DHT22;7790;53.022;12.968;2023-02-28T23:43:33;19.40;35.80
15384;DHT22;7790;53.022;12.968;2023-02-28T23:47:35;19.40;36.50
15384;DHT22;7790;53.022;12.968;2023-02-28T23:51:36;19.30;36.50
15384;DHT22;7790;53.022;12.968;2023-02-28T23:55:36;19.50;36.30
15384;DHT22;7790;53.022;12.968;2023-02-28T23:59:37;19.70;36.30
